sensor_id;sensor_type;location;lat;lon;timestamp;temperature;humidity
77207;DHT22;66190;50.708;7.906;2023-02-28T00:00:51;-2.40;99.90
77207;DHT22;66190;50.708;7.906;2023-02-28T00:03:17;-2.40;99.90
77207;DHT22;66190;50.708;7.906;2023-02-28T00:05:42;-2.50;99.90
77207;DHT22;66190;50.708;7.906;2023-02-28T00:08:08;-2.50;99.90
77207;DHT22;66190;50.708;7.906;2023-02-28T00:10:34;-2.50;99.90
77207;DHT22;66190;50.708;7.906;2023-02-28T00:13:02;-2.40;99.90
77207;DHT22;66190;50.708;7.906;2023-02-28T00:15:31;-2.40;99.90
77207;DHT22;66190;50.708;7.906;2023-02-28T00:17:57;-2.40;99.90
77207;DHT22;66190;50.708;7.906;2023-02-28T00:20:23;-2.40;99.90
77207;DHT22;66190;50.708;7.906;2023-02-28T00:22:51;-2.40;99.90
77207;DHT22;66190;50.708;7.906;2023-02-28T00:25:23;-2.40;99.90
77207;DHT22;66190;50.708;7.906;2023-02-28T00:27:49;-2.40;99.90
77207;DHT22;66190;50.708;7.906;2023-02-28T00:30:20;-2.40;99.90
77207;DHT22;66190;50.708;7.906;2023-02-28T00:32:46;-2.40;99.90
77207;DHT22;66190;50.708;7.906;2023-02-28T00:35:11;-2.40;99.90
77207;DHT22;66190;50.708;7.906;2023-02-28T00:37:37;-2.50;99.90
77207;DHT22;66190;50.708;7.906;2023-02-28T00:40:05;-2.50;99.90
77207;DHT22;66190;50.708;7.906;2023-02-28T00:42:32;-2.50;99.90
77207;DHT22;66190;50.708;7.906;2023-02-28T00:44:57;-2.60;99.90
77207;DHT22;66190;50.708;7.906;2023-02-28T00:47:23;-2.60;99.90
77207;DHT22;66190;50.708;7.906;2023-02-28T00:49:49;-2.70;99.90
77207;DHT22;66190;50.708;7.906;2023-02-28T00:52:15;-2.80;99.90
77207;DHT22;66190;50.708;7.906;2023-02-28T00:54:40;-2.80;99.90
77207;DHT22;66190;50.708;7.906;2023-02-28T00:57:06;-2.70;99.90
77207;DHT22;66190;50.708;7.906;2023-02-28T00:59:31;-2.70;99.90
77207;DHT22;66190;50.708;7.906;2023-02-28T01:01:57;-2.70;99.90
77207;DHT22;66190;50.708;7.906;2023-02-28T01:04:23;-2.70;99.90
77207;DHT22;66190;50.708;7.906;2023-02-28T01:06:50;-2.70;99.90
77207;DHT22;66190;50.708;7.906;2023-02-28T01:09:15;-2.80;99.90
77207;DHT22;66190;50.708;7.906;2023-02-28T01:11:42;-2.80;99.90
77207;DHT22;66190;50.708;7.906;2023-02-28T01:14:12;-2.80;99.90
77207;DHT22;66190;50.708;7.906;2023-02-28T01:16:38;-2.80;99.90
77207;DHT22;66190;50.708;7.906;2023-02-28T01:19:04;-2.80;99.90
77207;DHT22;66190;50.708;7.906;2023-02-28T01:21:29;-2.80;99.90
77207;DHT22;66190;50.708;7.906;2023-02-28T01:23:57;-2.80;99.90
77207;DHT22;66190;50.708;7.906;2023-02-28T01:26:24;-2.80;99.90
77207;DHT22;66190;50.708;7.906;2023-02-28T01:28:51;-2.80;99.90
77207;DHT22;66190;50.708;7.906;2023-02-28T01:31:19;-2.80;99.90
77207;DHT22;66190;50.708;7.906;2023-02-28T01:33:44;-2.80;99.90
77207;DHT22;66190;50.708;7.906;2023-02-28T01:36:14;-2.90;99.90
77207;DHT22;66190;50.708;7.906;2023-02-28T01:38:41;-2.80;99.90
77207;DHT22;66190;50.708;7.906;2023-02-28T01:41:07;-2.80;99.90
77207;DHT22;66190;50.708;7.906;2023-02-28T01:46:11;-2.60;99.90
77207;DHT22;66190;50.708;7.906;2023-02-28T01:48:41;-2.60;99.90
77207;DHT22;66190;50.708;7.906;2023-02-28T01:51:16;-2.50;99.90
77207;DHT22;66190;50.708;7.906;2023-02-28T01:53:47;-2.40;99.90
77207;DHT22;66190;50.708;7.906;2023-02-28T01:56:17;-2.40;99.90
77207;DHT22;66190;50.708;7.906;2023-02-28T01:58:51;-2.40;99.90
77207;DHT22;66190;50.708;7.906;2023-02-28T02:01:20;-2.30;99.90
77207;DHT22;66190;50.708;7.906;2023-02-28T02:03:53;-2.30;99.90
77207;DHT22;66190;50.708;7.906;2023-02-28T02:06:30;-2.30;99.90
77207;DHT22;66190;50.708;7.906;2023-02-28T02:08:56;-2.30;99.90
77207;DHT22;66190;50.708;7.906;2023-02-28T02:11:23;-2.30;99.90
77207;DHT22;66190;50.708;7.906;2023-02-28T02:30:45;-2.60;99.90
77207;DHT22;66190;50.708;7.906;2023-02-28T02:36:35;-2.80;99.90
77207;DHT22;66190;50.708;7.906;2023-02-28T02:41:54;-2.90;99.90
77207;DHT22;66190;50.708;7.906;2023-02-28T02:44:48;-2.90;99.90
77207;DHT22;66190;50.708;7.906;2023-02-28T02:47:18;-3.00;99.90
77207;DHT22;66190;50.708;7.906;2023-02-28T02:49:52;-3.00;99.90
77207;DHT22;66190;50.708;7.906;2023-02-28T02:52:23;-3.10;99.90
77207;DHT22;66190;50.708;7.906;2023-02-28T02:54:52;-3.10;99.90
77207;DHT22;66190;50.708;7.906;2023-02-28T02:57:36;-3.10;99.90
77207;DHT22;66190;50.708;7.906;2023-02-28T03:00:05;-3.20;99.90
77207;DHT22;66190;50.708;7.906;2023-02-28T03:02:36;-3.20;99.90
77207;DHT22;66190;50.708;7.906;2023-02-28T03:05:25;-3.20;99.90
77207;DHT22;66190;50.708;7.906;2023-02-28T03:07:51;-3.20;99.90
77207;DHT22;66190;50.708;7.906;2023-02-28T03:10:39;-3.30;99.90
77207;DHT22;66190;50.708;7.906;2023-02-28T03:13:17;-3.30;99.90
77207;DHT22;66190;50.708;7.906;2023-02-28T03:21:38;-3.50;99.90
77207;DHT22;66190;50.708;7.906;2023-02-28T03:24:27;-3.50;99.90
77207;DHT22;66190;50.708;7.906;2023-02-28T03:27:06;-3.50;99.90
77207;DHT22;66190;50.708;7.906;2023-02-28T03:29:41;-3.50;99.90
77207;DHT22;66190;50.708;7.906;2023-02-28T03:32:18;-3.60;99.90
77207;DHT22;66190;50.708;7.906;2023-02-28T03:34:56;-3.70;99.90
77207;DHT22;66190;50.708;7.906;2023-02-28T03:37:24;-3.80;99.90
77207;DHT22;66190;50.708;7.906;2023-02-28T03:39:57;-3.70;99.90
77207;DHT22;66190;50.708;7.906;2023-02-28T03:42:27;-3.70;99.90
77207;DHT22;66190;50.708;7.906;2023-02-28T03:44:59;-3.70;99.90
77207;DHT22;66190;50.708;7.906;2023-02-28T03:50:14;-3.80;99.90
77207;DHT22;66190;50.708;7.906;2023-02-28T03:52:46;-3.80;99.90
77207;DHT22;66190;50.708;7.906;2023-02-28T03:55:14;-3.90;99.90
77207;DHT22;66190;50.708;7.906;2023-02-28T04:00:25;-3.80;99.90
77207;DHT22;66190;50.708;7.906;2023-02-28T04:02:54;-3.80;99.90
77207;DHT22;66190;50.708;7.906;2023-02-28T04:05:21;-3.70;99.90
77207;DHT22;66190;50.708;7.906;2023-02-28T04:07:47;-3.70;99.90
77207;DHT22;66190;50.708;7.906;2023-02-28T04:10:15;-3.80;99.90
77207;DHT22;66190;50.708;7.906;2023-02-28T04:12:41;-3.80;99.90
77207;DHT22;66190;50.708;7.906;2023-02-28T04:15:07;-3.90;99.90
77207;DHT22;66190;50.708;7.906;2023-02-28T04:17:33;-3.90;99.90
77207;DHT22;66190;50.708;7.906;2023-02-28T04:19:59;-3.80;99.90
77207;DHT22;66190;50.708;7.906;2023-02-28T04:22:24;-3.90;99.90
77207;DHT22;66190;50.708;7.906;2023-02-28T04:24:53;-4.00;99.90
77207;DHT22;66190;50.708;7.906;2023-02-28T04:27:20;-4.10;99.90
77207;DHT22;66190;50.708;7.906;2023-02-28T04:29:46;-4.00;99.90
77207;DHT22;66190;50.708;7.906;2023-02-28T04:32:12;-4.00;99.90
77207;DHT22;66190;50.708;7.906;2023-02-28T04:34:38;-4.00;99.90
77207;DHT22;66190;50.708;7.906;2023-02-28T04:37:04;-4.00;99.90
77207;DHT22;66190;50.708;7.906;2023-02-28T04:39:36;-3.90;99.90
77207;DHT22;66190;50.708;7.906;2023-02-28T04:42:03;-3.90;99.90
77207;DHT22;66190;50.708;7.906;2023-02-28T04:44:28;-4.00;99.90
77207;DHT22;66190;50.708;7.906;2023-02-28T04:46:54;-4.00;99.90
77207;DHT22;66190;50.708;7.906;2023-02-28T04:49:20;-4.00;99.90
77207;DHT22;66190;50.708;7.906;2023-02-28T04:51:45;-4.00;99.90
77207;DHT22;66190;50.708;7.906;2023-02-28T04:54:11;-4.00;99.90
77207;DHT22;66190;50.708;7.906;2023-02-28T04:56:38;-4.00;99.90
77207;DHT22;66190;50.708;7.906;2023-02-28T04:59:08;-4.10;99.90
77207;DHT22;66190;50.708;7.906;2023-02-28T05:01:34;-4.10;99.90
77207;DHT22;66190;50.708;7.906;2023-02-28T05:04:03;-4.20;99.90
77207;DHT22;66190;50.708;7.906;2023-02-28T05:06:33;-4.10;99.90
77207;DHT22;66190;50.708;7.906;2023-02-28T05:08:59;-4.10;99.90
77207;DHT22;66190;50.708;7.906;2023-02-28T05:11:30;-4.10;99.90
77207;DHT22;66190;50.708;7.906;2023-02-28T05:14:04;-4.10;99.90
77207;DHT22;66190;50.708;7.906;2023-02-28T05:16:30;-4.10;99.90
77207;DHT22;66190;50.708;7.906;2023-02-28T05:18:56;-4.10;99.90
77207;DHT22;66190;50.708;7.906;2023-02-28T05:21:36;-4.10;99.90
77207;DHT22;66190;50.708;7.906;2023-02-28T05:24:11;-4.10;99.90
77207;DHT22;66190;50.708;7.906;2023-02-28T05:26:41;-4.10;99.90
77207;DHT22;66190;50.708;7.906;2023-02-28T05:29:09;-4.10;99.90
77207;DHT22;66190;50.708;7.906;2023-02-28T05:31:35;-4.10;99.90
77207;DHT22;66190;50.708;7.906;2023-02-28T05:34:01;-4.10;99.90
77207;DHT22;66190;50.708;7.906;2023-02-28T05:36:27;-4.10;99.90
77207;DHT22;66190;50.708;7.906;2023-02-28T05:38:53;-4.20;99.90
77207;DHT22;66190;50.708;7.906;2023-02-28T05:41:19;-4.20;99.90
77207;DHT22;66190;50.708;7.906;2023-02-28T05:43:46;-4.20;99.90
77207;DHT22;66190;50.708;7.906;2023-02-28T05:46:13;-4.20;99.90
77207;DHT22;66190;50.708;7.906;2023-02-28T05:48:40;-4.10;99.90
77207;DHT22;66190;50.708;7.906;2023-02-28T05:51:08;-4.10;99.90
77207;DHT22;66190;50.708;7.906;2023-02-28T05:53:34;-4.10;99.90
77207;DHT22;66190;50.708;7.906;2023-02-28T05:56:00;-4.20;99.90
77207;DHT22;66190;50.708;7.906;2023-02-28T05:58:26;-4.20;99.90
77207;DHT22;66190;50.708;7.906;2023-02-28T06:00:56;-4.30;99.90
77207;DHT22;66190;50.708;7.906;2023-02-28T06:03:22;-4.30;99.90
77207;DHT22;66190;50.708;7.906;2023-02-28T06:05:48;-4.40;99.90
77207;DHT22;66190;50.708;7.906;2023-02-28T06:08:13;-4.40;99.90
77207;DHT22;66190;50.708;7.906;2023-02-28T06:10:39;-4.40;99.90
77207;DHT22;66190;50.708;7.906;2023-02-28T06:13:05;-4.40;99.90
77207;DHT22;66190;50.708;7.906;2023-02-28T06:15:31;-4.30;99.90
77207;DHT22;66190;50.708;7.906;2023-02-28T06:17:58;-4.40;99.90
77207;DHT22;66190;50.708;7.906;2023-02-28T06:20:25;-4.40;99.90
77207;DHT22;66190;50.708;7.906;2023-02-28T06:22:57;-4.40;99.90
77207;DHT22;66190;50.708;7.906;2023-02-28T06:25:24;-4.40;99.90
77207;DHT22;66190;50.708;7.906;2023-02-28T06:27:50;-4.40;99.90
77207;DHT22;66190;50.708;7.906;2023-02-28T06:30:16;-4.40;99.90
77207;DHT22;66190;50.708;7.906;2023-02-28T06:32:41;-4.50;99.90
77207;DHT22;66190;50.708;7.906;2023-02-28T06:35:09;-4.50;99.90
77207;DHT22;66190;50.708;7.906;2023-02-28T06:37:35;-4.50;99.90
77207;DHT22;66190;50.708;7.906;2023-02-28T06:40:01;-4.40;99.90
77207;DHT22;66190;50.708;7.906;2023-02-28T06:42:27;-4.40;99.90
77207;DHT22;66190;50.708;7.906;2023-02-28T06:44:57;-4.30;99.90
77207;DHT22;66190;50.708;7.906;2023-02-28T06:47:23;-4.30;99.90
77207;DHT22;66190;50.708;7.906;2023-02-28T06:49:49;-4.30;99.90
77207;DHT22;66190;50.708;7.906;2023-02-28T06:52:15;-4.20;99.90
77207;DHT22;66190;50.708;7.906;2023-02-28T06:54:41;-4.10;99.90
77207;DHT22;66190;50.708;7.906;2023-02-28T06:57:09;-4.10;99.90
77207;DHT22;66190;50.708;7.906;2023-02-28T06:59:34;-4.00;99.90
77207;DHT22;66190;50.708;7.906;2023-02-28T07:02:01;-3.90;99.90
77207;DHT22;66190;50.708;7.906;2023-02-28T07:04:27;-3.80;99.90
77207;DHT22;66190;50.708;7.906;2023-02-28T07:06:54;-3.70;99.90
77207;DHT22;66190;50.708;7.906;2023-02-28T07:09:22;-3.50;99.90
77207;DHT22;66190;50.708;7.906;2023-02-28T07:11:48;-3.40;99.90
77207;DHT22;66190;50.708;7.906;2023-02-28T07:14:14;-3.20;99.90
77207;DHT22;66190;50.708;7.906;2023-02-28T07:16:41;-3.10;99.90
77207;DHT22;66190;50.708;7.906;2023-02-28T07:19:06;-3.00;99.90
77207;DHT22;66190;50.708;7.906;2023-02-28T07:21:32;-2.90;99.90
77207;DHT22;66190;50.708;7.906;2023-02-28T07:23:57;-2.70;99.90
77207;DHT22;66190;50.708;7.906;2023-02-28T07:26:23;-2.50;99.90
77207;DHT22;66190;50.708;7.906;2023-02-28T07:28:49;-2.40;99.90
77207;DHT22;66190;50.708;7.906;2023-02-28T07:31:16;-2.40;99.90
77207;DHT22;66190;50.708;7.906;2023-02-28T07:33:43;-2.40;99.90
77207;DHT22;66190;50.708;7.906;2023-02-28T07:36:14;-2.30;99.90
77207;DHT22;66190;50.708;7.906;2023-02-28T07:38:45;-2.20;99.90
77207;DHT22;66190;50.708;7.906;2023-02-28T07:41:14;-2.20;99.80
77207;DHT22;66190;50.708;7.906;2023-02-28T07:43:40;-2.20;99.80
77207;DHT22;66190;50.708;7.906;2023-02-28T07:46:15;-2.20;99.40
77207;DHT22;66190;50.708;7.906;2023-02-28T07:48:41;-2.20;99.90
77207;DHT22;66190;50.708;7.906;2023-02-28T07:51:07;-2.20;99.90
77207;DHT22;66190;50.708;7.906;2023-02-28T07:53:33;-2.00;98.80
77207;DHT22;66190;50.708;7.906;2023-02-28T07:56:00;-1.80;98.70
77207;DHT22;66190;50.708;7.906;2023-02-28T07:58:27;-1.70;97.70
77207;DHT22;66190;50.708;7.906;2023-02-28T08:00:53;-1.70;96.90
77207;DHT22;66190;50.708;7.906;2023-02-28T08:03:19;-1.80;97.80
77207;DHT22;66190;50.708;7.906;2023-02-28T08:05:46;-1.70;97.50
77207;DHT22;66190;50.708;7.906;2023-02-28T08:08:13;-1.70;97.20
77207;DHT22;66190;50.708;7.906;2023-02-28T08:10:40;-1.70;97.40
77207;DHT22;66190;50.708;7.906;2023-02-28T08:13:06;-1.60;96.10
77207;DHT22;66190;50.708;7.906;2023-02-28T08:15:32;-1.50;95.80
77207;DHT22;66190;50.708;7.906;2023-02-28T08:17:58;-1.50;96.10
77207;DHT22;66190;50.708;7.906;2023-02-28T08:20:25;-1.40;96.40
77207;DHT22;66190;50.708;7.906;2023-02-28T08:22:51;-1.40;95.50
77207;DHT22;66190;50.708;7.906;2023-02-28T08:25:17;-1.30;93.80
77207;DHT22;66190;50.708;7.906;2023-02-28T08:27:43;-1.30;94.60
77207;DHT22;66190;50.708;7.906;2023-02-28T08:30:13;-1.20;93.40
77207;DHT22;66190;50.708;7.906;2023-02-28T08:32:42;-1.10;92.70
77207;DHT22;66190;50.708;7.906;2023-02-28T08:35:08;-1.10;93.10
77207;DHT22;66190;50.708;7.906;2023-02-28T08:37:36;-1.10;93.80
77207;DHT22;66190;50.708;7.906;2023-02-28T08:40:02;-1.00;88.00
77207;DHT22;66190;50.708;7.906;2023-02-28T08:42:29;-1.00;92.50
77207;DHT22;66190;50.708;7.906;2023-02-28T08:44:55;-1.00;92.40
77207;DHT22;66190;50.708;7.906;2023-02-28T08:47:21;-0.90;88.10
77207;DHT22;66190;50.708;7.906;2023-02-28T08:49:47;-0.80;86.40
77207;DHT22;66190;50.708;7.906;2023-02-28T08:52:13;-0.80;89.00
77207;DHT22;66190;50.708;7.906;2023-02-28T08:54:39;-0.70;77.00
77207;DHT22;66190;50.708;7.906;2023-02-28T08:57:04;-0.70;87.60
77207;DHT22;66190;50.708;7.906;2023-02-28T08:59:30;-0.70;69.40
77207;DHT22;66190;50.708;7.906;2023-02-28T09:01:56;-0.60;68.10
77207;DHT22;66190;50.708;7.906;2023-02-28T09:04:21;-0.60;75.70
77207;DHT22;66190;50.708;7.906;2023-02-28T09:06:47;-0.60;82.80
77207;DHT22;66190;50.708;7.906;2023-02-28T09:09:15;-0.50;62.70
77207;DHT22;66190;50.708;7.906;2023-02-28T09:11:43;-0.50;69.60
77207;DHT22;66190;50.708;7.906;2023-02-28T09:14:08;-0.50;70.30
77207;DHT22;66190;50.708;7.906;2023-02-28T09:16:34;-0.50;65.30
77207;DHT22;66190;50.708;7.906;2023-02-28T09:19:00;-0.40;68.40
77207;DHT22;66190;50.708;7.906;2023-02-28T09:21:26;-0.40;61.30
77207;DHT22;66190;50.708;7.906;2023-02-28T09:23:53;-0.30;64.50
77207;DHT22;66190;50.708;7.906;2023-02-28T09:26:24;-0.20;59.20
77207;DHT22;66190;50.708;7.906;2023-02-28T09:28:50;-0.20;60.90
77207;DHT22;66190;50.708;7.906;2023-02-28T09:31:19;-0.20;58.10
77207;DHT22;66190;50.708;7.906;2023-02-28T09:33:47;-0.10;58.20
77207;DHT22;66190;50.708;7.906;2023-02-28T09:36:14;-0.20;58.10
77207;DHT22;66190;50.708;7.906;2023-02-28T09:38:43;0.00;61.40
77207;DHT22;66190;50.708;7.906;2023-02-28T09:41:21;0.10;59.20
77207;DHT22;66190;50.708;7.906;2023-02-28T09:43:52;0.10;61.30
77207;DHT22;66190;50.708;7.906;2023-02-28T09:46:29;0.20;59.30
77207;DHT22;66190;50.708;7.906;2023-02-28T09:48:57;0.20;60.70
77207;DHT22;66190;50.708;7.906;2023-02-28T09:53:54;0.10;58.30
77207;DHT22;66190;50.708;7.906;2023-02-28T09:56:24;0.10;59.80
77207;DHT22;66190;50.708;7.906;2023-02-28T09:59:41;0.10;58.00
77207;DHT22;66190;50.708;7.906;2023-02-28T10:02:32;0.10;55.90
77207;DHT22;66190;50.708;7.906;2023-02-28T10:04:51;0.00;58.10
77207;DHT22;66190;50.708;7.906;2023-02-28T10:07:48;0.10;58.70
77207;DHT22;66190;50.708;7.906;2023-02-28T10:10:23;0.10;56.10
77207;DHT22;66190;50.708;7.906;2023-02-28T10:12:53;0.10;57.30
77207;DHT22;66190;50.708;7.906;2023-02-28T10:15:23;0.10;54.80
77207;DHT22;66190;50.708;7.906;2023-02-28T10:17:54;0.00;56.60
77207;DHT22;66190;50.708;7.906;2023-02-28T10:20:23;0.10;57.50
77207;DHT22;66190;50.708;7.906;2023-02-28T10:23:21;0.00;56.20
77207;DHT22;66190;50.708;7.906;2023-02-28T10:26:14;0.20;55.20
77207;DHT22;66190;50.708;7.906;2023-02-28T10:28:41;0.30;53.70
77207;DHT22;66190;50.708;7.906;2023-02-28T10:31:18;0.30;53.40
77207;DHT22;66190;50.708;7.906;2023-02-28T10:33:45;0.30;54.30
77207;DHT22;66190;50.708;7.906;2023-02-28T10:36:19;0.40;52.90
77207;DHT22;66190;50.708;7.906;2023-02-28T10:38:46;0.40;52.80
77207;DHT22;66190;50.708;7.906;2023-02-28T10:41:26;0.50;54.60
77207;DHT22;66190;50.708;7.906;2023-02-28T10:44:15;0.50;52.80
77207;DHT22;66190;50.708;7.906;2023-02-28T10:46:41;0.50;53.00
77207;DHT22;66190;50.708;7.906;2023-02-28T10:49:20;0.80;53.70
77207;DHT22;66190;50.708;7.906;2023-02-28T10:51:49;0.90;54.40
77207;DHT22;66190;50.708;7.906;2023-02-28T10:54:19;1.20;53.80
77207;DHT22;66190;50.708;7.906;2023-02-28T10:56:45;1.20;52.30
77207;DHT22;66190;50.708;7.906;2023-02-28T10:59:29;1.20;51.80
77207;DHT22;66190;50.708;7.906;2023-02-28T11:01:56;1.60;57.70
77207;DHT22;66190;50.708;7.906;2023-02-28T11:07:22;2.00;52.10
77207;DHT22;66190;50.708;7.906;2023-02-28T11:10:05;1.90;51.30
77207;DHT22;66190;50.708;7.906;2023-02-28T11:12:38;2.10;51.80
77207;DHT22;66190;50.708;7.906;2023-02-28T11:15:23;2.20;53.00
77207;DHT22;66190;50.708;7.906;2023-02-28T11:21:08;2.30;52.20
77207;DHT22;66190;50.708;7.906;2023-02-28T11:23:36;2.30;50.20
77207;DHT22;66190;50.708;7.906;2023-02-28T11:26:03;2.20;52.20
77207;DHT22;66190;50.708;7.906;2023-02-28T11:28:36;2.30;51.20
77207;DHT22;66190;50.708;7.906;2023-02-28T11:33:53;2.40;51.00
77207;DHT22;66190;50.708;7.906;2023-02-28T11:36:29;2.50;51.50
77207;DHT22;66190;50.708;7.906;2023-02-28T11:38:58;2.40;50.20
77207;DHT22;66190;50.708;7.906;2023-02-28T11:46:58;2.60;53.40
77207;DHT22;66190;50.708;7.906;2023-02-28T11:49:34;2.80;52.00
77207;DHT22;66190;50.708;7.906;2023-02-28T11:52:10;3.10;51.90
77207;DHT22;66190;50.708;7.906;2023-02-28T11:54:56;3.20;51.00
77207;DHT22;66190;50.708;7.906;2023-02-28T12:05:37;2.60;48.70
77207;DHT22;66190;50.708;7.906;2023-02-28T12:19:04;2.60;49.70
77207;DHT22;66190;50.708;7.906;2023-02-28T12:26:39;2.60;50.40
77207;DHT22;66190;50.708;7.906;2023-02-28T12:29:17;2.50;49.90
77207;DHT22;66190;50.708;7.906;2023-02-28T12:38:19;2.50;49.10
77207;DHT22;66190;50.708;7.906;2023-02-28T12:41:11;2.50;51.60
77207;DHT22;66190;50.708;7.906;2023-02-28T12:44:02;2.50;49.90
77207;DHT22;66190;50.708;7.906;2023-02-28T12:46:44;2.50;50.40
77207;DHT22;66190;50.708;7.906;2023-02-28T12:52:02;2.40;49.90
77207;DHT22;66190;50.708;7.906;2023-02-28T12:57:28;2.90;52.30
77207;DHT22;66190;50.708;7.906;2023-02-28T13:00:01;2.80;50.20
77207;DHT22;66190;50.708;7.906;2023-02-28T13:02:55;2.60;48.90
77207;DHT22;66190;50.708;7.906;2023-02-28T13:06:05;2.70;51.70
77207;DHT22;66190;50.708;7.906;2023-02-28T13:08:52;3.10;50.40
77207;DHT22;66190;50.708;7.906;2023-02-28T13:14:04;3.30;53.10
77207;DHT22;66190;50.708;7.906;2023-02-28T13:16:59;2.90;49.00
77207;DHT22;66190;50.708;7.906;2023-02-28T13:19:28;2.70;49.30
77207;DHT22;66190;50.708;7.906;2023-02-28T13:21:55;2.80;51.30
77207;DHT22;66190;50.708;7.906;2023-02-28T13:24:42;3.00;50.50
77207;DHT22;66190;50.708;7.906;2023-02-28T13:29:43;3.00;48.70
77207;DHT22;66190;50.708;7.906;2023-02-28T13:32:28;3.00;50.80
77207;DHT22;66190;50.708;7.906;2023-02-28T13:47:42;3.00;49.60
77207;DHT22;66190;50.708;7.906;2023-02-28T13:55:34;2.90;49.50
77207;DHT22;66190;50.708;7.906;2023-02-28T13:58:12;3.40;52.50
77207;DHT22;66190;50.708;7.906;2023-02-28T14:06:15;3.90;49.80
77207;DHT22;66190;50.708;7.906;2023-02-28T14:08:54;4.00;48.70
77207;DHT22;66190;50.708;7.906;2023-02-28T14:11:41;3.30;46.30
77207;DHT22;66190;50.708;7.906;2023-02-28T14:14:08;3.50;47.50
77207;DHT22;66190;50.708;7.906;2023-02-28T14:16:45;3.80;48.80
77207;DHT22;66190;50.708;7.906;2023-02-28T14:19:19;3.90;47.70
77207;DHT22;66190;50.708;7.906;2023-02-28T14:27:47;4.30;48.60
77207;DHT22;66190;50.708;7.906;2023-02-28T14:33:32;4.20;47.40
77207;DHT22;66190;50.708;7.906;2023-02-28T14:38:57;4.60;48.10
77207;DHT22;66190;50.708;7.906;2023-02-28T14:41:41;4.70;47.50
77207;DHT22;66190;50.708;7.906;2023-02-28T14:44:21;4.20;45.50
77207;DHT22;66190;50.708;7.906;2023-02-28T14:46:54;4.10;46.80
77207;DHT22;66190;50.708;7.906;2023-02-28T14:49:34;4.20;47.50
77207;DHT22;66190;50.708;7.906;2023-02-28T14:52:07;4.30;47.10
77207;DHT22;66190;50.708;7.906;2023-02-28T14:54:37;4.40;46.70
77207;DHT22;66190;50.708;7.906;2023-02-28T14:57:03;4.20;45.50
77207;DHT22;66190;50.708;7.906;2023-02-28T14:59:32;4.00;47.30
77207;DHT22;66190;50.708;7.906;2023-02-28T15:02:34;4.10;45.80
77207;DHT22;66190;50.708;7.906;2023-02-28T15:05:10;3.90;45.80
77207;DHT22;66190;50.708;7.906;2023-02-28T15:07:46;3.80;46.30
77207;DHT22;66190;50.708;7.906;2023-02-28T15:10:26;3.80;46.70
77207;DHT22;66190;50.708;7.906;2023-02-28T15:13:18;3.70;46.30
77207;DHT22;66190;50.708;7.906;2023-02-28T15:15:59;3.90;46.50
77207;DHT22;66190;50.708;7.906;2023-02-28T15:21:21;4.00;47.30
77207;DHT22;66190;50.708;7.906;2023-02-28T15:24:38;3.80;46.80
77207;DHT22;66190;50.708;7.906;2023-02-28T15:27:25;3.50;46.70
77207;DHT22;66190;50.708;7.906;2023-02-28T15:29:56;3.50;47.70
77207;DHT22;66190;50.708;7.906;2023-02-28T15:32:35;3.60;48.60
77207;DHT22;66190;50.708;7.906;2023-02-28T15:35:25;3.60;48.40
77207;DHT22;66190;50.708;7.906;2023-02-28T15:37:53;3.50;47.40
77207;DHT22;66190;50.708;7.906;2023-02-28T15:40:40;3.30;48.00
77207;DHT22;66190;50.708;7.906;2023-02-28T15:43:18;3.30;48.20
77207;DHT22;66190;50.708;7.906;2023-02-28T15:51:32;3.20;47.70
77207;DHT22;66190;50.708;7.906;2023-02-28T15:54:05;3.10;48.40
77207;DHT22;66190;50.708;7.906;2023-02-28T15:56:53;3.10;47.80
77207;DHT22;66190;50.708;7.906;2023-02-28T15:59:26;3.10;48.30
77207;DHT22;66190;50.708;7.906;2023-02-28T16:02:17;3.10;49.50
77207;DHT22;66190;50.708;7.906;2023-02-28T16:04:56;3.00;48.20
77207;DHT22;66190;50.708;7.906;2023-02-28T16:07:22;2.90;48.50
77207;DHT22;66190;50.708;7.906;2023-02-28T16:09:48;2.80;48.40
77207;DHT22;66190;50.708;7.906;2023-02-28T16:12:13;2.70;48.70
77207;DHT22;66190;50.708;7.906;2023-02-28T16:14:39;2.70;50.10
77207;DHT22;66190;50.708;7.906;2023-02-28T16:17:22;2.60;49.20
77207;DHT22;66190;50.708;7.906;2023-02-28T16:19:48;2.50;49.60
77207;DHT22;66190;50.708;7.906;2023-02-28T16:22:14;2.40;49.90
77207;DHT22;66190;50.708;7.906;2023-02-28T16:24:39;2.40;50.60
77207;DHT22;66190;50.708;7.906;2023-02-28T16:27:05;2.30;50.50
77207;DHT22;66190;50.708;7.906;2023-02-28T16:29:34;2.20;52.00
77207;DHT22;66190;50.708;7.906;2023-02-28T16:32:04;2.20;52.60
77207;DHT22;66190;50.708;7.906;2023-02-28T16:34:30;2.10;51.70
77207;DHT22;66190;50.708;7.906;2023-02-28T16:36:56;2.10;51.20
77207;DHT22;66190;50.708;7.906;2023-02-28T16:39:21;2.00;51.80
77207;DHT22;66190;50.708;7.906;2023-02-28T16:41:48;1.90;52.20
77207;DHT22;66190;50.708;7.906;2023-02-28T16:44:28;1.90;52.10
77207;DHT22;66190;50.708;7.906;2023-02-28T16:46:54;1.90;52.10
77207;DHT22;66190;50.708;7.906;2023-02-28T16:49:21;1.80;52.20
77207;DHT22;66190;50.708;7.906;2023-02-28T16:51:47;1.80;52.00
77207;DHT22;66190;50.708;7.906;2023-02-28T16:54:13;1.70;53.70
77207;DHT22;66190;50.708;7.906;2023-02-28T16:56:46;1.60;55.20
77207;DHT22;66190;50.708;7.906;2023-02-28T16:59:12;1.50;55.50
77207;DHT22;66190;50.708;7.906;2023-02-28T17:01:39;1.50;55.60
77207;DHT22;66190;50.708;7.906;2023-02-28T17:04:05;1.40;59.60
77207;DHT22;66190;50.708;7.906;2023-02-28T17:06:31;1.30;60.40
77207;DHT22;66190;50.708;7.906;2023-02-28T17:08:58;1.20;60.90
77207;DHT22;66190;50.708;7.906;2023-02-28T17:11:25;1.20;64.30
77207;DHT22;66190;50.708;7.906;2023-02-28T17:13:52;1.10;68.10
77207;DHT22;66190;50.708;7.906;2023-02-28T17:16:32;1.00;70.30
77207;DHT22;66190;50.708;7.906;2023-02-28T17:19:00;0.90;73.20
77207;DHT22;66190;50.708;7.906;2023-02-28T17:21:26;0.80;78.70
77207;DHT22;66190;50.708;7.906;2023-02-28T17:23:52;0.80;72.20
77207;DHT22;66190;50.708;7.906;2023-02-28T17:26:19;0.70;74.20
77207;DHT22;66190;50.708;7.906;2023-02-28T17:28:47;0.70;79.20
77207;DHT22;66190;50.708;7.906;2023-02-28T17:31:12;0.60;82.50
77207;DHT22;66190;50.708;7.906;2023-02-28T17:33:38;0.60;87.40
77207;DHT22;66190;50.708;7.906;2023-02-28T17:36:04;0.30;86.70
77207;DHT22;66190;50.708;7.906;2023-02-28T17:38:30;0.20;90.40
77207;DHT22;66190;50.708;7.906;2023-02-28T17:40:56;0.30;91.10
77207;DHT22;66190;50.708;7.906;2023-02-28T17:43:26;0.30;91.10
77207;DHT22;66190;50.708;7.906;2023-02-28T17:45:53;0.20;91.30
77207;DHT22;66190;50.708;7.906;2023-02-28T17:48:19;0.00;92.30
77207;DHT22;66190;50.708;7.906;2023-02-28T17:50:45;-0.10;92.30
77207;DHT22;66190;50.708;7.906;2023-02-28T17:53:11;-0.10;92.80
77207;DHT22;66190;50.708;7.906;2023-02-28T17:55:36;-0.20;92.30
77207;DHT22;66190;50.708;7.906;2023-02-28T17:58:03;-0.20;93.30
77207;DHT22;66190;50.708;7.906;2023-02-28T18:00:29;-0.10;93.50
77207;DHT22;66190;50.708;7.906;2023-02-28T18:02:55;-0.20;93.10
77207;DHT22;66190;50.708;7.906;2023-02-28T18:05:21;-0.20;93.40
77207;DHT22;66190;50.708;7.906;2023-02-28T18:07:49;-0.20;92.90
77207;DHT22;66190;50.708;7.906;2023-02-28T18:10:19;-0.40;93.90
77207;DHT22;66190;50.708;7.906;2023-02-28T18:12:50;-0.30;94.00
77207;DHT22;66190;50.708;7.906;2023-02-28T18:15:17;-0.50;93.60
77207;DHT22;66190;50.708;7.906;2023-02-28T18:17:46;-0.40;93.90